Time;durP1;ratioP1;P1;durP2;ratioP2;P2;SDS_P1;SDS_P2;PMS_P1;PMS_P2;Temp;Humidity;BMP_temperature;BMP_pressure;BME280_temperature;BME280_humidity;BME280_pressure;Samples;Min_cycle;Max_cycle;Signal;HPM_P1;HPM_P2
2023/01/06 00:01:36;;;;;;;48.77;30.57;;;9.60;99.90;;;;;;6049582;23;20404;-77
2023/01/06 00:04:04;;;;;;;46.47;31.30;;;9.60;99.90;;;;;;6040447;23;20516;-77
2023/01/06 00:06:33;;;;;;;46.87;31.03;;;9.60;99.90;;;;;;6049690;23;20426;-76
2023/01/06 00:09:03;;;;;;;42.63;31.70;;;9.60;99.90;;;;;;6038708;23;20888;-77
2023/01/06 00:11:33;;;;;;;50.53;32.23;;;9.70;99.90;;;;;;6040369;23;20400;-77
2023/01/06 00:14:02;;;;;;;48.10;30.80;;;9.70;99.90;;;;;;6049372;23;20408;-76
2023/01/06 00:16:30;;;;;;;49.37;32.20;;;9.60;99.90;;;;;;6038231;23;20530;-76
2023/01/06 00:18:59;;;;;;;49.40;32.83;;;9.60;99.90;;;;;;6038367;23;20786;-77
2023/01/06 00:21:28;;;;;;;42.27;31.47;;;9.60;99.90;;;;;;6049940;23;20410;-77
2023/01/06 00:23:56;;;;;;;55.77;33.50;;;9.70;99.90;;;;;;6038335;23;20428;-77
2023/01/06 00:26:25;;;;;;;47.40;32.77;;;9.70;99.90;;;;;;6038182;23;20451;-77
2023/01/06 00:28:55;;;;;;;47.90;32.47;;;9.70;99.90;;;;;;6049329;23;20918;-77
2023/01/06 00:31:26;;;;;;;51.23;32.57;;;9.70;99.90;;;;;;6038232;23;20426;-76
2023/01/06 00:33:55;;;;;;;49.70;33.03;;;9.70;99.90;;;;;;6038296;23;20424;-76
2023/01/06 00:36:24;;;;;;;52.70;34.77;;;9.70;99.90;;;;;;6049378;23;20779;-77
2023/01/06 00:38:52;;;;;;;46.77;32.03;;;9.70;99.90;;;;;;6038323;23;20974;-77
2023/01/06 00:44:08;;;;;;;53.10;33.60;;;9.70;99.90;;;;;;6039955;23;20420;-77
2023/01/06 00:46:36;;;;;;;47.63;32.20;;;9.80;99.90;;;;;;6038509;23;20832;-77
2023/01/06 00:49:05;;;;;;;54.23;35.30;;;9.70;99.90;;;;;;6038262;23;20801;-76
2023/01/06 00:51:36;;;;;;;51.67;34.77;;;9.80;99.90;;;;;;6038228;23;20443;-76
2023/01/06 00:54:05;;;;;;;52.17;35.17;;;9.80;99.90;;;;;;6038121;23;20424;-75
2023/01/06 00:56:36;;;;;;;54.10;35.97;;;9.80;99.90;;;;;;6049652;23;20479;-76
2023/01/06 00:59:05;;;;;;;54.53;36.93;;;9.80;99.90;;;;;;6038685;23;20467;-76
2023/01/06 01:01:35;;;;;;;55.17;36.70;;;9.80;99.90;;;;;;6038002;23;20762;-75
2023/01/06 01:04:04;;;;;;;53.60;34.80;;;9.90;99.90;;;;;;6041197;23;20419;-76
2023/01/06 01:06:33;;;;;;;57.30;34.57;;;9.90;99.90;;;;;;6041795;23;20833;-75
2023/01/06 01:09:01;;;;;;;49.70;34.50;;;9.90;99.90;;;;;;6040757;23;20426;-74
2023/01/06 01:14:27;;;;;;;54.27;37.73;;;9.90;99.90;;;;;;5954792;24;20459;-77
2023/01/06 01:16:57;;;;;;;66.20;36.60;;;9.90;99.90;;;;;;6015051;23;20432;-77
2023/01/06 01:19:26;;;;;;;51.30;36.57;;;9.90;99.90;;;;;;6051165;23;20435;-77
2023/01/06 01:21:55;;;;;;;53.47;37.27;;;9.90;99.90;;;;;;6042112;23;20396;-77
2023/01/06 01:24:23;;;;;;;53.53;36.93;;;9.90;99.90;;;;;;6040621;23;20747;-77
2023/01/06 01:26:51;;;;;;;56.87;37.57;;;9.90;99.90;;;;;;6039988;23;20440;-77
2023/01/06 01:29:20;;;;;;;58.27;37.20;;;10.00;99.90;;;;;;6051127;23;20408;-76
2023/01/06 01:31:50;;;;;;;53.73;36.40;;;10.00;99.90;;;;;;6040216;23;20495;-76
2023/01/06 01:34:20;;;;;;;50.83;37.70;;;10.00;99.90;;;;;;6040429;23;20424;-76
2023/01/06 01:36:50;;;;;;;56.87;38.67;;;10.00;99.90;;;;;;6039971;23;20442;-76
2023/01/06 01:39:20;;;;;;;53.93;38.10;;;10.00;99.90;;;;;;6040125;23;20503;-76
2023/01/06 01:41:49;;;;;;;49.10;35.10;;;10.00;99.90;;;;;;6040012;23;20449;-76
2023/01/06 01:44:54;;;;;;;53.77;35.40;;;10.00;99.90;;;;;;6040274;23;20427;-76
2023/01/06 01:47:35;;;;;;;51.83;36.30;;;10.10;99.90;;;;;;6039872;23;20447;-76
2023/01/06 01:50:10;;;;;;;51.97;37.50;;;10.10;99.90;;;;;;6039856;23;20437;-76
2023/01/06 01:52:40;;;;;;;50.57;34.97;;;10.10;99.90;;;;;;6039909;23;20416;-76
2023/01/06 01:55:09;;;;;;;54.33;35.63;;;10.10;99.90;;;;;;6039769;23;20772;-76
2023/01/06 01:57:41;;;;;;;52.27;37.10;;;10.10;99.90;;;;;;6039777;23;20527;-76
2023/01/06 02:00:10;;;;;;;55.93;38.10;;;10.10;99.90;;;;;;6039608;23;20527;-76
2023/01/06 02:02:42;;;;;;;50.03;37.27;;;10.10;99.90;;;;;;6039777;23;20479;-76
2023/01/06 02:05:18;;;;;;;55.63;36.00;;;10.10;99.90;;;;;;6039566;23;20428;-76
2023/01/06 02:07:47;;;;;;;51.60;37.07;;;10.10;99.90;;;;;;6041487;23;20400;-76
2023/01/06 02:10:17;;;;;;;49.97;35.83;;;10.10;99.90;;;;;;6039672;23;20420;-76
2023/01/06 02:12:48;;;;;;;47.70;34.17;;;10.10;99.90;;;;;;6039795;23;20997;-76
2023/01/06 02:15:18;;;;;;;51.87;35.37;;;10.10;99.90;;;;;;6039227;23;20962;-76
2023/01/06 02:18:14;;;;;;;52.53;34.30;;;10.10;99.90;;;;;;6041208;23;20404;-76
2023/01/06 02:21:22;;;;;;;52.70;34.30;;;10.10;99.90;;;;;;6041702;23;20447;-76
2023/01/06 02:24:12;;;;;;;50.30;35.70;;;10.10;99.90;;;;;;5961280;24;20513;-76
2023/01/06 02:27:10;;;;;;;43.57;34.50;;;10.10;99.90;;;;;;5959995;24;20441;-76
2023/01/06 02:30:09;;;;;;;41.17;32.47;;;10.20;99.90;;;;;;6028191;23;20499;-76
2023/01/06 02:32:58;;;;;;;39.40;31.97;;;10.20;99.90;;;;;;6039777;23;20427;-76
2023/01/06 02:35:39;;;;;;;38.30;31.40;;;10.20;99.90;;;;;;6050610;23;20479;-76
2023/01/06 02:38:20;;;;;;;43.53;30.10;;;10.20;99.90;;;;;;6039407;23;20796;-76
2023/01/06 02:41:04;;;;;;;36.90;28.00;;;10.20;99.90;;;;;;6039735;23;20443;-76
2023/01/06 02:43:41;;;;;;;38.53;26.90;;;10.20;99.90;;;;;;6039362;23;20503;-76
2023/01/06 02:46:22;;;;;;;35.37;26.90;;;10.20;99.90;;;;;;6039234;23;20447;-76
2023/01/06 02:49:01;;;;;;;34.20;25.93;;;10.20;99.90;;;;;;6039258;23;20428;-76
2023/01/06 02:51:39;;;;;;;33.57;27.83;;;10.20;99.90;;;;;;6039240;23;20807;-76
2023/01/06 02:54:16;;;;;;;28.30;25.00;;;10.30;99.90;;;;;;6039438;23;20418;-76
2023/01/06 02:56:50;;;;;;;29.93;24.40;;;10.30;99.90;;;;;;6039236;23;20526;-76
2023/01/06 02:59:24;;;;;;;31.60;24.17;;;10.30;99.90;;;;;;6039259;23;20733;-76
2023/01/06 03:01:55;;;;;;;27.17;22.83;;;10.30;99.90;;;;;;6039509;23;20459;-76
2023/01/06 03:04:29;;;;;;;27.57;23.67;;;10.30;99.90;;;;;;6039462;23;20420;-76
2023/01/06 03:07:02;;;;;;;28.57;23.80;;;10.30;99.90;;;;;;6039085;23;20443;-76
2023/01/06 03:09:34;;;;;;;28.27;24.73;;;10.30;99.90;;;;;;6039130;23;21002;-77
2023/01/06 03:12:08;;;;;;;28.63;24.33;;;10.40;99.90;;;;;;6039045;23;20432;-76
2023/01/06 03:14:40;;;;;;;31.07;25.37;;;10.40;99.90;;;;;;6039022;23;20475;-76
2023/01/06 03:17:08;;;;;;;28.33;24.60;;;10.40;99.90;;;;;;6038992;23;20955;-76
2023/01/06 03:19:38;;;;;;;29.70;23.77;;;10.40;99.90;;;;;;6038990;23;20439;-76
2023/01/06 03:22:08;;;;;;;29.80;24.27;;;10.40;99.90;;;;;;6039485;23;20436;-76
2023/01/06 03:24:38;;;;;;;30.07;22.97;;;10.40;99.90;;;;;;6038912;23;20483;-76
2023/01/06 03:27:07;;;;;;;28.57;23.23;;;10.40;99.90;;;;;;6039711;23;20813;-76
2023/01/06 03:29:37;;;;;;;31.77;23.70;;;10.40;99.90;;;;;;6039543;23;20493;-76
2023/01/06 03:32:12;;;;;;;29.63;26.43;;;10.40;99.90;;;;;;6038933;23;20752;-76
2023/01/06 03:34:58;;;;;;;28.93;24.83;;;10.40;99.90;;;;;;6038864;23;20949;-76
2023/01/06 03:37:34;;;;;;;26.73;22.80;;;10.40;99.90;;;;;;6039197;23;20427;-76
2023/01/06 03:40:10;;;;;;;26.77;22.43;;;10.40;99.90;;;;;;6038702;23;20463;-76
2023/01/06 03:45:51;;;;;;;26.27;22.67;;;10.40;99.90;;;;;;6038921;23;20443;-76
2023/01/06 03:48:29;;;;;;;24.33;21.70;;;10.40;99.90;;;;;;6038767;23;20448;-76
2023/01/06 03:51:05;;;;;;;27.87;21.37;;;10.30;99.90;;;;;;6015063;23;20427;-76
2023/01/06 03:53:37;;;;;;;27.30;21.60;;;10.40;99.90;;;;;;6015144;23;20906;-76
2023/01/06 03:56:15;;;;;;;22.43;20.17;;;10.40;99.90;;;;;;6014883;23;20932;-76
2023/01/06 03:58:46;;;;;;;23.50;20.53;;;10.40;99.90;;;;;;6015046;23;20494;-76
2023/01/06 04:01:15;;;;;;;23.13;19.83;;;10.40;99.90;;;;;;6014973;23;20471;-76
2023/01/06 04:03:45;;;;;;;20.60;18.40;;;10.40;99.90;;;;;;6014984;23;20979;-76
2023/01/06 04:06:15;;;;;;;21.07;18.10;;;10.40;99.90;;;;;;6014804;23;20448;-76
2023/01/06 04:08:44;;;;;;;19.47;17.43;;;10.40;99.90;;;;;;6014782;23;20741;-76
2023/01/06 04:12:37;;;;;;;18.57;16.40;;;10.40;99.90;;;;;;6014998;23;20904;-76
2023/01/06 04:14:00;;;;;;;18.87;16.97;;;10.40;99.90;;;;;;6014670;23;20430;-76
2023/01/06 04:16:29;;;;;;;19.13;17.13;;;10.40;99.90;;;;;;6014961;23;20468;-76
2023/01/06 04:18:57;;;;;;;19.17;17.20;;;10.40;99.90;;;;;;6015068;23;20416;-76
2023/01/06 04:21:27;;;;;;;19.23;17.33;;;10.40;99.90;;;;;;6014648;23;20444;-76
2023/01/06 04:23:57;;;;;;;20.83;17.93;;;10.40;99.90;;;;;;6014747;23;20419;-76
2023/01/06 04:26:25;;;;;;;20.60;18.60;;;10.40;99.90;;;;;;6014726;23;20448;-76
2023/01/06 04:28:54;;;;;;;19.63;17.53;;;10.40;99.90;;;;;;6014725;23;20420;-76
2023/01/06 04:31:22;;;;;;;21.53;17.57;;;10.40;99.90;;;;;;6014585;23;20479;-76
2023/01/06 04:33:53;;;;;;;20.30;18.30;;;10.40;99.90;;;;;;6014761;23;20478;-76
2023/01/06 04:36:21;;;;;;;20.47;18.43;;;10.40;99.90;;;;;;6014484;23;20503;-76
2023/01/06 04:38:54;;;;;;;21.23;18.77;;;10.50;99.90;;;;;;6014608;23;20487;-76
2023/01/06 04:41:22;;;;;;;22.57;20.37;;;10.50;99.90;;;;;;6049306;23;20526;-76
2023/01/06 04:43:51;;;;;;;23.93;21.63;;;10.40;99.90;;;;;;6014569;23;20424;-76
2023/01/06 04:46:19;;;;;;;24.43;22.10;;;10.40;99.90;;;;;;6014527;23;20832;-76
2023/01/06 04:48:47;;;;;;;24.80;22.20;;;10.40;99.90;;;;;;6045605;23;20423;-76
2023/01/06 04:51:15;;;;;;;25.50;22.90;;;10.50;99.90;;;;;;6049324;23;20900;-76
2023/01/06 04:53:43;;;;;;;24.80;22.27;;;10.40;99.90;;;;;;6049333;23;20404;-76
2023/01/06 04:56:13;;;;;;;25.03;22.53;;;10.50;99.90;;;;;;6014684;23;20488;-76
2023/01/06 04:58:41;;;;;;;26.00;22.90;;;10.40;99.90;;;;;;6039699;23;20883;-76
2023/01/06 05:01:11;;;;;;;24.10;21.70;;;10.40;99.90;;;;;;6049477;23;20432;-76
2023/01/06 05:03:41;;;;;;;26.40;23.80;;;10.50;99.90;;;;;;6014553;23;20721;-76
2023/01/06 05:06:11;;;;;;;25.20;22.80;;;10.40;99.90;;;;;;6014460;23;20784;-76
2023/01/06 05:08:40;;;;;;;25.57;23.10;;;10.40;99.90;;;;;;6049663;23;20396;-74
2023/01/06 05:11:13;;;;;;;25.10;22.40;;;10.40;99.90;;;;;;6014527;23;20427;-74
2023/01/06 05:13:41;;;;;;;25.17;22.63;;;10.40;99.90;;;;;;6049812;23;20403;-76
2023/01/06 05:16:12;;;;;;;27.40;22.40;;;10.50;99.90;;;;;;6014611;23;20492;-75
2023/01/06 05:18:40;;;;;;;24.60;22.20;;;10.40;99.90;;;;;;6014634;23;20412;-76
2023/01/06 05:21:08;;;;;;;24.50;22.07;;;10.40;99.90;;;;;;6014484;23;20440;-76
2023/01/06 05:23:37;;;;;;;23.70;21.47;;;10.40;99.90;;;;;;6049060;23;20406;-74
2023/01/06 05:26:06;;;;;;;22.50;20.40;;;10.50;99.90;;;;;;6049230;23;20791;-76
2023/01/06 05:28:35;;;;;;;21.30;19.37;;;10.50;99.90;;;;;;6040043;23;20446;-75
2023/01/06 05:31:05;;;;;;;24.73;19.90;;;10.40;99.90;;;;;;6049193;23;20805;-74
2023/01/06 05:33:33;;;;;;;22.00;19.70;;;10.40;99.90;;;;;;6014545;23;20420;-75
2023/01/06 05:36:04;;;;;;;22.73;20.40;;;10.40;99.90;;;;;;6039833;23;20772;-76
2023/01/06 05:38:32;;;;;;;20.60;18.70;;;10.40;99.90;;;;;;6015257;23;20772;-75
2023/01/06 05:41:02;;;;;;;20.20;18.20;;;10.50;99.90;;;;;;6014326;23;20805;-74
2023/01/06 05:43:30;;;;;;;19.30;17.50;;;10.50;99.90;;;;;;6039885;23;20468;-74
2023/01/06 05:46:03;;;;;;;20.00;18.00;;;10.50;99.90;;;;;;6014253;23;20555;-75
2023/01/06 05:48:32;;;;;;;20.03;18.03;;;10.50;99.90;;;;;;6049723;23;20417;-74
2023/01/06 05:51:04;;;;;;;19.37;16.93;;;10.40;99.90;;;;;;6016177;23;20411;-75
2023/01/06 05:53:33;;;;;;;17.80;16.00;;;10.50;99.90;;;;;;6050862;23;20423;-75
2023/01/06 05:56:02;;;;;;;17.53;15.70;;;10.50;99.90;;;;;;6050657;23;20428;-75
2023/01/06 05:58:32;;;;;;;17.87;15.97;;;10.50;99.90;;;;;;6016023;23;20756;-75
2023/01/06 06:01:03;;;;;;;17.03;15.23;;;10.50;99.90;;;;;;6051110;23;20405;-74
2023/01/06 06:03:32;;;;;;;25.70;15.37;;;10.40;99.90;;;;;;6051215;23;20407;-75
2023/01/06 06:06:03;;;;;;;15.03;13.53;;;10.40;99.90;;;;;;6050828;23;20428;-75
2023/01/06 06:08:32;;;;;;;14.47;13.07;;;10.50;99.90;;;;;;6016152;23;20480;-74
2023/01/06 06:11:03;;;;;;;13.43;12.03;;;10.50;99.90;;;;;;6050624;23;20464;-75
2023/01/06 06:13:31;;;;;;;13.90;12.60;;;10.50;99.90;;;;;;6016079;23;20984;-74
2023/01/06 06:16:12;;;;;;;13.20;12.00;;;10.50;99.90;;;;;;6015858;23;20455;-74
2023/01/06 06:18:42;;;;;;;13.60;12.40;;;10.50;99.90;;;;;;6041874;23;20465;-74
2023/01/06 06:21:12;;;;;;;13.97;12.67;;;10.50;99.90;;;;;;6050703;23;20381;-75
2023/01/06 06:23:41;;;;;;;13.57;12.17;;;10.50;99.90;;;;;;6050569;23;20483;-76
2023/01/06 06:26:10;;;;;;;13.87;12.43;;;10.50;99.90;;;;;;6050460;23;20424;-74
2023/01/06 06:28:40;;;;;;;20.43;12.80;;;10.50;99.90;;;;;;6041070;23;20504;-76
2023/01/06 06:31:11;;;;;;;13.40;11.50;;;10.50;99.90;;;;;;6050889;23;20409;-76
2023/01/06 06:33:39;;;;;;;13.47;11.80;;;10.50;99.90;;;;;;6050849;23;20721;-76
2023/01/06 06:36:10;;;;;;;12.47;11.37;;;10.50;99.90;;;;;;6050887;23;20900;-75
2023/01/06 06:38:39;;;;;;;12.20;10.77;;;10.50;99.90;;;;;;6050960;23;20391;-75
2023/01/06 06:41:07;;;;;;;12.63;11.43;;;10.50;99.90;;;;;;6015965;23;20463;-76
2023/01/06 06:43:35;;;;;;;12.10;10.67;;;10.50;99.90;;;;;;6015867;23;20450;-76
2023/01/06 06:46:03;;;;;;;12.60;10.67;;;10.50;99.90;;;;;;6050419;23;20420;-75
2023/01/06 06:48:33;;;;;;;10.70;9.70;;;10.50;99.90;;;;;;6041055;23;20439;-75
2023/01/06 06:51:04;;;;;;;10.03;8.87;;;10.50;99.90;;;;;;6015924;23;20821;-76
2023/01/06 06:53:33;;;;;;;10.53;8.90;;;10.50;99.90;;;;;;6051406;23;20416;-75
2023/01/06 06:56:01;;;;;;;9.47;8.57;;;10.50;99.90;;;;;;6015754;23;20439;-76
2023/01/06 06:58:30;;;;;;;8.90;7.67;;;10.50;99.90;;;;;;6015559;23;20428;-76
2023/01/06 07:00:58;;;;;;;9.10;8.20;;;10.50;99.90;;;;;;6015347;23;20480;-75
2023/01/06 07:03:26;;;;;;;10.10;7.50;;;10.50;99.90;;;;;;6040819;23;20436;-75
2023/01/06 07:05:56;;;;;;;11.63;6.70;;;10.60;99.90;;;;;;6015366;23;20431;-76
2023/01/06 07:08:24;;;;;;;8.50;7.70;;;10.50;99.90;;;;;;6040949;23;20435;-76
2023/01/06 07:10:52;;;;;;;8.13;7.33;;;10.50;99.90;;;;;;6050060;23;20769;-77
2023/01/06 07:13:20;;;;;;;8.47;6.50;;;10.50;99.90;;;;;;6050748;23;20487;-76
2023/01/06 07:15:48;;;;;;;8.20;6.33;;;10.60;99.90;;;;;;6040446;23;20420;-76
2023/01/06 07:18:16;;;;;;;6.87;5.97;;;10.60;99.90;;;;;;6015328;23;20575;-77
2023/01/06 07:20:48;;;;;;;7.37;5.90;;;10.90;99.90;;;;;;6015278;23;20412;-76
2023/01/06 07:23:17;;;;;;;8.27;5.50;;;10.60;99.90;;;;;;6050584;23;20416;-77
2023/01/06 07:25:46;;;;;;;6.27;5.67;;;10.60;99.90;;;;;;6049929;23;20450;-77
2023/01/06 07:28:14;;;;;;;8.03;5.50;;;10.60;99.90;;;;;;6015217;23;20423;-76
2023/01/06 07:30:42;;;;;;;5.93;4.50;;;10.60;99.90;;;;;;6015494;23;20430;-76
2023/01/06 07:33:10;;;;;;;5.20;4.23;;;10.60;99.90;;;;;;6015352;23;20491;-77
2023/01/06 07:35:38;;;;;;;6.23;5.10;;;10.60;99.90;;;;;;6050223;23;20510;-76
2023/01/06 07:38:08;;;;;;;6.10;4.00;;;10.60;99.90;;;;;;6050621;23;20408;-76
2023/01/06 07:40:38;;;;;;;7.33;5.30;;;10.60;99.90;;;;;;6050106;23;20797;-76
2023/01/06 07:43:07;;;;;;;5.90;5.07;;;10.60;99.90;;;;;;6050139;23;20432;-76
2023/01/06 07:45:36;;;;;;;7.80;5.07;;;10.50;99.90;;;;;;6015159;23;20428;-77
2023/01/06 07:48:05;;;;;;;6.90;4.00;;;10.60;99.90;;;;;;6015286;23;20416;-76
2023/01/06 07:50:33;;;;;;;5.90;3.90;;;10.60;99.90;;;;;;6015138;23;20416;-77
2023/01/06 07:53:02;;;;;;;5.10;4.00;;;10.60;99.90;;;;;;6050393;23;20894;-76
2023/01/06 07:55:30;;;;;;;4.93;3.60;;;10.60;99.90;;;;;;6014965;23;20475;-75
2023/01/06 07:58:04;;;;;;;5.00;4.07;;;10.60;99.90;;;;;;6049727;23;20495;-76
2023/01/06 08:00:32;;;;;;;6.40;4.60;;;10.60;99.90;;;;;;6040513;23;20420;-76
2023/01/06 08:03:04;;;;;;;5.77;3.67;;;10.50;99.90;;;;;;6015169;23;20791;-77
2023/01/06 08:05:32;;;;;;;6.23;4.23;;;10.60;99.90;;;;;;6014911;23;20444;-76
2023/01/06 08:08:00;;;;;;;6.43;4.00;;;10.60;99.90;;;;;;6050201;23;20789;-76
2023/01/06 08:10:29;;;;;;;5.60;4.20;;;10.50;99.90;;;;;;6050050;23;20400;-76
2023/01/06 08:12:58;;;;;;;5.20;4.00;;;10.50;99.90;;;;;;6014372;23;20408;-76
2023/01/06 08:15:27;;;;;;;6.10;4.23;;;10.50;99.90;;;;;;6014817;23;20443;-76
2023/01/06 08:17:56;;;;;;;7.17;4.23;;;10.50;99.90;;;;;;6049456;23;20452;-76
2023/01/06 08:20:24;;;;;;;4.90;4.00;;;10.50;99.90;;;;;;6014910;23;20420;-76
2023/01/06 08:22:52;;;;;;;6.60;4.17;;;10.50;99.90;;;;;;6049671;23;20999;-77
2023/01/06 08:25:20;;;;;;;7.40;4.13;;;10.50;99.90;;;;;;6049521;23;20770;-76
2023/01/06 08:27:48;;;;;;;6.67;4.37;;;10.50;99.90;;;;;;6014710;23;20478;-76
2023/01/06 08:30:20;;;;;;;5.40;4.40;;;10.50;99.90;;;;;;6050306;23;20411;-76
2023/01/06 08:32:49;;;;;;;7.10;4.87;;;10.50;99.90;;;;;;6041354;23;20407;-76
2023/01/06 08:35:17;;;;;;;5.73;4.40;;;10.50;99.90;;;;;;6014901;23;20773;-76
2023/01/06 08:37:45;;;;;;;5.47;4.93;;;10.50;99.90;;;;;;6050137;23;20487;-76
2023/01/06 08:40:14;;;;;;;5.13;4.53;;;10.50;99.90;;;;;;6050088;23;20396;-77
2023/01/06 08:42:42;;;;;;;7.93;4.40;;;10.50;99.90;;;;;;6040854;23;20412;-77
2023/01/06 08:45:11;;;;;;;8.03;4.43;;;10.50;99.90;;;;;;6049547;23;20891;-77
2023/01/06 08:47:41;;;;;;;6.70;5.60;;;10.50;99.90;;;;;;6039956;23;20495;-77
2023/01/06 08:50:09;;;;;;;5.13;4.63;;;10.50;99.90;;;;;;6034232;23;20435;-77
2023/01/06 08:52:37;;;;;;;6.27;5.50;;;10.50;99.90;;;;;;6040335;23;20416;-76
2023/01/06 08:55:06;;;;;;;8.20;5.40;;;10.40;99.90;;;;;;6049205;23;20407;-76
2023/01/06 08:57:34;;;;;;;5.40;4.90;;;10.50;99.90;;;;;;6038231;23;20812;-77
2023/01/06 09:00:03;;;;;;;6.57;5.70;;;10.50;99.90;;;;;;6038512;23;20741;-76
2023/01/06 09:02:31;;;;;;;7.10;5.50;;;10.50;99.90;;;;;;6039811;23;20416;-76
2023/01/06 09:05:01;;;;;;;6.83;6.00;;;10.50;99.90;;;;;;6040029;23;20462;-76
2023/01/06 09:07:29;;;;;;;7.10;5.80;;;10.50;99.90;;;;;;6038317;23;20431;-77
2023/01/06 09:09:57;;;;;;;5.97;5.37;;;10.50;99.90;;;;;;6038183;23;20420;-76
2023/01/06 09:12:25;;;;;;;5.80;4.97;;;10.50;99.90;;;;;;6049687;23;20465;-76
2023/01/06 09:14:54;;;;;;;6.17;4.67;;;10.50;99.90;;;;;;6038270;23;20416;-77
2023/01/06 09:17:22;;;;;;;5.63;4.87;;;10.50;99.90;;;;;;6038173;23;20452;-77
2023/01/06 09:19:50;;;;;;;6.00;5.27;;;10.50;99.90;;;;;;6038156;23;20424;-76
2023/01/06 09:22:19;;;;;;;5.40;4.90;;;10.50;99.90;;;;;;6049702;23;20726;-77
2023/01/06 09:24:48;;;;;;;7.60;5.40;;;10.50;99.90;;;;;;6050686;23;20436;-76
2023/01/06 09:27:16;;;;;;;5.37;4.87;;;10.50;99.90;;;;;;6040021;23;20443;-76
2023/01/06 09:29:44;;;;;;;5.50;4.90;;;10.50;99.90;;;;;;6040314;23;20430;-76
2023/01/06 09:32:12;;;;;;;5.30;4.80;;;10.50;99.90;;;;;;6051484;23;20479;-76
2023/01/06 09:34:40;;;;;;;5.60;4.60;;;10.50;99.90;;;;;;6039983;23;20451;-77
2023/01/06 09:37:09;;;;;;;5.43;4.60;;;10.50;99.90;;;;;;6039930;23;20483;-76
2023/01/06 09:39:38;;;;;;;5.47;5.00;;;10.50;99.90;;;;;;6040042;23;20428;-76
2023/01/06 09:42:31;;;;;;;5.70;5.10;;;10.50;99.90;;;;;;6042081;23;20435;-76
2023/01/06 09:45:03;;;;;;;6.33;5.20;;;10.50;99.90;;;;;;6051151;23;20503;-77
2023/01/06 09:47:35;;;;;;;6.13;5.23;;;10.60;99.90;;;;;;6039986;23;20476;-76
2023/01/06 09:50:09;;;;;;;5.63;5.03;;;10.60;99.90;;;;;;6039748;23;20451;-76
2023/01/06 09:52:43;;;;;;;6.07;5.30;;;10.60;99.90;;;;;;6039841;23;20408;-76
2023/01/06 09:55:18;;;;;;;5.83;5.33;;;10.60;99.90;;;;;;6051328;23;20768;-76
2023/01/06 09:57:51;;;;;;;7.03;5.40;;;10.70;99.90;;;;;;6051492;23;20758;-76
2023/01/06 10:00:28;;;;;;;5.67;5.17;;;10.70;99.90;;;;;;6039861;23;20448;-76
2023/01/06 10:02:56;;;;;;;5.27;4.77;;;10.70;99.90;;;;;;6050851;23;20466;-76
2023/01/06 10:05:32;;;;;;;5.50;4.90;;;10.70;99.90;;;;;;6041297;23;20527;-76
2023/01/06 10:08:07;;;;;;;5.83;5.30;;;10.70;99.90;;;;;;6051857;23;20475;-76
2023/01/06 10:10:44;;;;;;;6.23;5.57;;;10.80;99.90;;;;;;6052411;23;20776;-76
2023/01/06 10:13:31;;;;;;;7.30;6.60;;;10.80;99.90;;;;;;6039949;23;20483;-76
2023/01/06 10:16:10;;;;;;;6.47;5.87;;;10.80;99.90;;;;;;6039620;23;20440;-76
2023/01/06 10:18:48;;;;;;;5.70;4.70;;;10.90;99.90;;;;;;6039737;23;20868;-76
2023/01/06 10:21:27;;;;;;;5.10;4.30;;;10.90;99.90;;;;;;6039615;23;20423;-76
2023/01/06 10:24:15;;;;;;;5.73;5.17;;;10.90;99.90;;;;;;6041029;23;20924;-75
2023/01/06 10:26:48;;;;;;;5.10;3.90;;;11.00;99.90;;;;;;6040986;23;20432;-76
2023/01/06 10:29:19;;;;;;;5.77;3.77;;;11.00;99.90;;;;;;6041022;23;20852;-76
2023/01/06 10:31:49;;;;;;;4.50;3.83;;;11.00;99.90;;;;;;6051383;23;20825;-75
2023/01/06 10:34:22;;;;;;;4.63;3.20;;;11.00;99.90;;;;;;6050590;23;20389;-76
2023/01/06 10:36:57;;;;;;;5.50;2.57;;;11.00;99.90;;;;;;6050255;23;20519;-75
2023/01/06 10:39:28;;;;;;;5.03;2.43;;;11.00;99.90;;;;;;6051260;23;20478;-76
2023/01/06 10:44:52;;;;;;;3.33;1.70;;;11.00;99.90;;;;;;6050317;23;20420;-76
2023/01/06 10:47:25;;;;;;;6.97;1.83;;;11.00;99.90;;;;;;6051557;23;20416;-76
2023/01/06 10:49:53;;;;;;;4.80;1.70;;;11.00;99.90;;;;;;6042470;23;20420;-76
2023/01/06 10:52:22;;;;;;;4.57;1.70;;;11.00;99.90;;;;;;6050440;23;20403;-76
2023/01/06 10:54:54;;;;;;;4.90;2.07;;;11.00;99.90;;;;;;6015946;23;20420;-75
2023/01/06 10:57:28;;;;;;;3.60;1.40;;;11.00;99.90;;;;;;6050393;23;20420;-75
2023/01/06 11:00:12;;;;;;;5.50;1.30;;;11.00;99.90;;;;;;6016667;23;20416;-76
2023/01/06 11:02:44;;;;;;;3.87;1.57;;;11.00;99.90;;;;;;6050594;23;20384;-75
2023/01/06 11:05:18;;;;;;;5.23;1.50;;;11.00;99.90;;;;;;6015244;23;20436;-76
2023/01/06 11:07:50;;;;;;;5.17;1.97;;;11.00;99.90;;;;;;6050229;23;20416;-76
2023/01/06 11:10:30;;;;;;;4.33;1.60;;;11.00;99.90;;;;;;6051129;23;20393;-76
2023/01/06 11:13:03;;;;;;;4.30;1.47;;;11.00;99.90;;;;;;6050650;23;20896;-75
2023/01/06 11:15:38;;;;;;;6.13;1.70;;;11.00;99.90;;;;;;6015396;23;20440;-75
2023/01/06 11:18:19;;;;;;;3.30;1.40;;;11.00;99.90;;;;;;6015492;23;20502;-76
2023/01/06 11:21:03;;;;;;;3.67;1.17;;;11.00;99.90;;;;;;6050205;23;20385;-76
2023/01/06 11:23:32;;;;;;;5.10;1.40;;;11.00;99.90;;;;;;6015497;23;20963;-76
2023/01/06 11:26:05;;;;;;;6.27;1.30;;;11.00;99.90;;;;;;6015276;23;20458;-76
2023/01/06 11:28:34;;;;;;;4.60;1.37;;;11.00;99.90;;;;;;6015627;23;20416;-76
2023/01/06 11:31:05;;;;;;;4.00;1.30;;;11.00;99.90;;;;;;6050091;23;20982;-77
2023/01/06 11:33:36;;;;;;;4.07;1.30;;;11.00;99.90;;;;;;6050711;23;20385;-76
2023/01/06 11:36:10;;;;;;;4.87;1.27;;;11.00;99.90;;;;;;6050818;23;20984;-76
2023/01/06 11:38:44;;;;;;;3.70;1.20;;;10.90;99.90;;;;;;6050264;23;20411;-77
2023/01/06 11:41:20;;;;;;;4.30;1.10;;;10.90;99.90;;;;;;6050556;23;20464;-76
2023/01/06 11:43:50;;;;;;;6.77;1.60;;;10.90;99.90;;;;;;6050785;23;20435;-77
2023/01/06 11:46:22;;;;;;;7.53;1.40;;;10.90;99.90;;;;;;6040611;23;20452;-77
2023/01/06 11:48:58;;;;;;;4.70;1.20;;;10.90;99.90;;;;;;6049854;23;20448;-77
2023/01/06 11:51:46;;;;;;;5.73;1.87;;;10.80;99.90;;;;;;6015086;23;20420;-76
2023/01/06 11:54:29;;;;;;;4.97;1.27;;;10.80;99.90;;;;;;6050013;23;20712;-76
2023/01/06 11:57:04;;;;;;;3.70;1.37;;;10.80;99.90;;;;;;6014798;23;20943;-76
2023/01/06 11:59:51;;;;;;;6.00;1.80;;;10.80;99.90;;;;;;6015030;23;20510;-77
2023/01/06 12:02:23;;;;;;;3.60;1.37;;;10.80;99.90;;;;;;6015040;23;20423;-76
2023/01/06 12:04:53;;;;;;;5.33;1.53;;;10.80;99.90;;;;;;6014950;23;20464;-76
2023/01/06 12:07:27;;;;;;;4.27;1.30;;;10.80;99.90;;;;;;6014792;23;20780;-76
2023/01/06 12:10:01;;;;;;;4.43;1.87;;;10.70;99.90;;;;;;6014871;23;20460;-77
2023/01/06 12:12:29;;;;;;;4.50;1.20;;;10.80;99.90;;;;;;6014921;23;20880;-76
2023/01/06 12:14:59;;;;;;;3.77;1.40;;;10.80;99.90;;;;;;6049927;23;20460;-77
2023/01/06 12:17:38;;;;;;;5.83;1.50;;;10.80;99.90;;;;;;6015003;23;20448;-76
2023/01/06 12:20:12;;;;;;;4.87;1.83;;;10.80;99.90;;;;;;6040375;23;20404;-76
2023/01/06 12:22:45;;;;;;;6.03;1.60;;;10.80;99.90;;;;;;6014917;23;20440;-76
2023/01/06 12:25:17;;;;;;;4.83;1.60;;;10.70;99.90;;;;;;6049440;23;20467;-76
2023/01/06 12:27:50;;;;;;;3.90;1.10;;;10.80;99.90;;;;;;6015027;23;20416;-77
2023/01/06 12:30:27;;;;;;;6.23;1.60;;;10.80;99.90;;;;;;6040655;23;20476;-77
2023/01/06 12:33:02;;;;;;;4.33;1.20;;;10.80;99.90;;;;;;6049891;23;20380;-76
2023/01/06 12:35:32;;;;;;;5.33;1.83;;;10.80;99.90;;;;;;6014809;23;20437;-76
2023/01/06 12:38:11;;;;;;;4.70;1.80;;;10.80;99.90;;;;;;6014734;23;20421;-76
2023/01/06 12:40:44;;;;;;;4.33;1.53;;;10.80;99.90;;;;;;6015082;23;20415;-77
2023/01/06 12:43:16;;;;;;;5.60;1.93;;;10.80;99.90;;;;;;6014945;23;20412;-76
2023/01/06 12:45:54;;;;;;;4.53;1.30;;;10.80;99.90;;;;;;6014903;23;20451;-77
2023/01/06 12:48:35;;;;;;;5.03;1.60;;;10.70;99.90;;;;;;6049985;23;20474;-77
2023/01/06 12:51:10;;;;;;;5.80;1.50;;;10.80;99.90;;;;;;6014802;23;20430;-77
2023/01/06 12:53:43;;;;;;;7.33;2.23;;;10.80;99.90;;;;;;6014638;23;20423;-77
2023/01/06 12:56:29;;;;;;;6.07;2.30;;;10.80;99.90;;;;;;6014668;23;20460;-77
2023/01/06 12:59:06;;;;;;;4.73;1.57;;;10.80;99.90;;;;;;6014324;23;20424;-77
2023/01/06 13:01:41;;;;;;;5.33;1.57;;;10.80;99.90;;;;;;6049647;23;20438;-77
2023/01/06 13:04:43;;;;;;;6.27;1.80;;;10.80;99.90;;;;;;6049648;23;20420;-76
2023/01/06 13:07:22;;;;;;;4.33;1.60;;;10.80;99.90;;;;;;6014563;23;20457;-76
2023/01/06 13:10:03;;;;;;;5.73;1.43;;;10.80;99.90;;;;;;6049541;23;20384;-76
2023/01/06 13:12:53;;;;;;;5.50;1.67;;;10.70;99.90;;;;;;6014577;23;20423;-76
2023/01/06 13:15:24;;;;;;;6.10;1.53;;;10.70;99.90;;;;;;6014646;23;20440;-76